createdAt,value
2018-12-18T00:00:40.468Z,59.00
2018-12-18T00:05:44.968Z,56.60
2018-12-18T00:10:54.808Z,65.60
2018-12-18T00:15:59.299Z,56.87
2018-12-18T00:21:04.328Z,54.07
2018-12-18T00:26:09.273Z,57.17
2018-12-18T00:31:14.586Z,63.07
2018-12-18T00:36:20.391Z,61.77
2018-12-18T00:46:48.406Z,59.60
2018-12-18T00:51:54.927Z,56.37
2018-12-18T00:56:59.785Z,64.63
2018-12-18T01:02:04.842Z,58.33
2018-12-18T01:12:30.627Z,57.40
2018-12-18T01:17:36.349Z,51.10
2018-12-18T01:28:02.195Z,61.57
2018-12-18T01:33:07.255Z,45.30
2018-12-18T01:38:13.148Z,45.87
2018-12-18T01:43:18.352Z,52.90
2018-12-18T01:48:24.967Z,58.63
2018-12-18T01:53:30.944Z,68.77
2018-12-18T01:58:36.086Z,54.57
2018-12-18T02:03:44.407Z,56.17
2018-12-18T02:08:51.077Z,47.57
2018-12-18T02:13:58.408Z,58.73
2018-12-18T02:19:03.595Z,75.57
2018-12-18T02:24:09.141Z,61.40
2018-12-18T02:29:15.094Z,54.07
2018-12-18T02:34:21.127Z,59.17
2018-12-18T02:39:27.659Z,55.83
2018-12-18T02:44:34.029Z,45.27
2018-12-18T02:49:39.998Z,55.17
2018-12-18T02:54:45.306Z,44.13
2018-12-18T02:59:51.409Z,40.80
2018-12-18T03:04:57.034Z,48.10
2018-12-18T03:15:22.163Z,43.60
2018-12-18T03:20:29.176Z,40.13
2018-12-18T03:25:38.467Z,44.40
2018-12-18T03:30:43.080Z,47.13
2018-12-18T03:35:48.152Z,47.33
2018-12-18T03:40:55.791Z,44.50
2018-12-18T03:51:37.932Z,49.77
2018-12-18T03:56:43.104Z,37.97
2018-12-18T04:01:48.595Z,42.73
2018-12-18T04:06:54.145Z,52.53
2018-12-18T04:12:04.598Z,51.83
2018-12-18T04:17:11.119Z,43.00
2018-12-18T04:22:16.534Z,46.40
2018-12-18T04:27:21.706Z,54.37
2018-12-18T04:32:26.567Z,52.63
2018-12-18T04:37:39.363Z,34.77
2018-12-18T04:42:44.743Z,34.10
2018-12-18T04:47:49.997Z,46.73
2018-12-18T04:52:55.668Z,39.50
2018-12-18T04:58:02.811Z,42.13
2018-12-18T05:03:07.762Z,38.73
2018-12-18T05:08:12.331Z,45.30
2018-12-18T05:13:18.142Z,37.17
2018-12-18T05:18:30.175Z,34.07
2018-12-18T05:23:35.373Z,39.90
2018-12-18T05:28:41.335Z,53.67
2018-12-18T05:33:48.065Z,44.37
2018-12-18T05:38:53.479Z,47.90
2018-12-18T05:49:20.020Z,44.57
2018-12-18T05:54:27.022Z,38.77
2018-12-18T05:59:32.027Z,43.87
2018-12-18T06:04:38.311Z,38.37
2018-12-18T06:09:44.025Z,29.00
2018-12-18T06:14:50.283Z,26.37
2018-12-18T06:19:55.040Z,25.07
2018-12-18T06:25:00.203Z,31.50
2018-12-18T06:30:05.594Z,42.63
2018-12-18T06:35:10.723Z,21.40
2018-12-18T06:41:09.422Z,22.37
2018-12-18T06:46:16.338Z,24.57
2018-12-18T06:51:22.894Z,28.43
2018-12-18T06:56:27.445Z,23.33
2018-12-18T07:01:34.296Z,18.30
2018-12-18T07:06:40.231Z,20.40
2018-12-18T07:11:45.444Z,16.00
2018-12-18T07:16:50.989Z,20.33
2018-12-18T07:27:17.161Z,19.37
2018-12-18T07:32:21.913Z,15.43
2018-12-18T07:37:26.940Z,19.30
2018-12-18T07:42:32.511Z,23.57
2018-12-18T07:47:37.553Z,19.57
2018-12-18T07:52:42.708Z,27.97
2018-12-18T07:57:50.443Z,27.10
2018-12-18T08:02:55.132Z,19.17
2018-12-18T08:08:01.988Z,20.80
2018-12-18T08:13:08.890Z,15.33
2018-12-18T08:18:14.802Z,20.07
2018-12-18T08:23:19.642Z,17.80
2018-12-18T08:28:25.112Z,19.97
2018-12-18T08:33:30.384Z,14.43
2018-12-18T08:38:35.934Z,38.43
2018-12-18T08:43:40.869Z,21.33
2018-12-18T08:48:46.889Z,17.50
2018-12-18T08:53:52.412Z,15.60
2018-12-18T08:58:57.927Z,18.83
2018-12-18T09:04:07.424Z,18.50
2018-12-18T09:14:34.439Z,21.83
2018-12-18T09:19:39.547Z,20.30
2018-12-18T09:24:44.796Z,17.80
2018-12-18T09:29:50.479Z,14.73
2018-12-18T09:34:55.288Z,15.30
2018-12-18T09:40:02.300Z,13.00
2018-12-18T09:45:08.614Z,14.30
2018-12-18T09:50:15.574Z,12.40
2018-12-18T09:55:20.905Z,15.10
2018-12-18T10:00:27.255Z,9.87
2018-12-18T10:05:33.865Z,12.53
2018-12-18T10:10:39.293Z,11.50
2018-12-18T10:15:44.515Z,9.20
2018-12-18T10:20:49.713Z,6.83
2018-12-18T10:25:54.426Z,16.83
2018-12-18T10:30:59.346Z,7.37
2018-12-18T10:36:04.017Z,19.80
2018-12-18T10:41:08.932Z,7.83
2018-12-18T10:46:14.322Z,7.93
2018-12-18T10:56:38.795Z,8.87
2018-12-18T11:01:48.218Z,17.00
2018-12-18T11:06:54.320Z,6.40
2018-12-18T11:17:27.912Z,7.10
2018-12-18T11:22:33.426Z,5.13
2018-12-18T11:33:37.077Z,8.40
2018-12-18T11:44:42.288Z,7.13
2018-12-18T11:49:46.815Z,6.53
2018-12-18T11:54:51.498Z,11.90
2018-12-18T12:29:28.139Z,3.37
2018-12-18T12:34:34.455Z,5.57
2018-12-18T14:39:09.855Z,7.40
2018-12-18T14:44:15.632Z,5.87
2018-12-18T14:49:20.710Z,3.33
2018-12-18T14:54:47.323Z,4.43
2018-12-18T14:59:52.300Z,2.47
2018-12-18T15:04:57.010Z,3.00
2018-12-18T15:10:02.197Z,7.63
2018-12-18T15:15:07.679Z,5.53
2018-12-18T15:20:11.803Z,2.13
2018-12-18T15:25:16.997Z,3.03
2018-12-18T15:30:25.913Z,6.43
2018-12-18T15:35:30.066Z,6.43
2018-12-18T15:40:34.642Z,4.67
2018-12-18T15:45:40.045Z,6.73
2018-12-18T15:50:44.957Z,2.63
2018-12-18T15:55:49.510Z,6.10
2018-12-18T16:00:55.400Z,4.50
2018-12-18T16:06:00.282Z,6.83
2018-12-18T16:11:04.539Z,8.67
2018-12-18T16:16:10.233Z,9.60
2018-12-18T16:21:15.660Z,7.93
2018-12-18T16:26:20.051Z,6.00
2018-12-18T16:31:25.215Z,12.13
2018-12-18T16:36:29.874Z,9.77
2018-12-18T16:41:34.628Z,11.77
2018-12-18T16:46:39.014Z,5.87
2018-12-18T16:51:44.353Z,9.00
2018-12-18T16:56:48.619Z,15.47
2018-12-18T17:01:53.249Z,6.27
2018-12-18T17:06:58.515Z,11.83
2018-12-18T17:12:03.052Z,5.30
2018-12-18T17:17:07.943Z,13.63
2018-12-18T17:22:13.511Z,10.33
2018-12-18T17:27:18.098Z,10.03
2018-12-18T17:32:25.349Z,13.20
2018-12-18T17:42:55.178Z,10.60
2018-12-18T17:47:59.845Z,15.30
2018-12-18T17:53:05.327Z,7.07
2018-12-18T17:58:11.031Z,7.20
2018-12-18T18:08:39.015Z,8.70
2018-12-18T18:13:43.946Z,3.83
2018-12-18T18:18:50.428Z,6.83
2018-12-18T18:23:55.573Z,4.50
2018-12-18T18:29:01.279Z,4.53
2018-12-18T18:34:05.666Z,3.77
2018-12-18T18:39:10.374Z,6.83
2018-12-18T18:44:14.792Z,2.17
2018-12-18T18:49:20.284Z,2.70
2018-12-18T18:54:24.975Z,13.33
2018-12-18T18:59:30.127Z,5.40
2018-12-18T19:04:35.576Z,5.30
2018-12-18T19:09:40.825Z,2.57
2018-12-18T19:14:45.447Z,2.27
2018-12-18T19:19:51.746Z,4.93
2018-12-18T19:24:57.531Z,3.43
2018-12-18T19:30:02.333Z,5.17
2018-12-18T19:35:06.729Z,2.23
2018-12-18T19:40:11.693Z,6.37
2018-12-18T19:45:16.520Z,6.40
2018-12-18T19:50:21.203Z,2.40
2018-12-18T19:55:26.228Z,2.97
2018-12-18T20:00:31.417Z,7.00
2018-12-18T20:05:38.381Z,2.50
2018-12-18T20:10:43.267Z,2.80
2018-12-18T20:21:17.146Z,4.83
2018-12-18T20:26:22.249Z,7.33
2018-12-18T20:31:27.213Z,6.63
2018-12-18T20:36:32.019Z,4.80
2018-12-18T20:41:36.515Z,2.70
2018-12-18T20:46:41.399Z,14.00
2018-12-18T20:51:45.757Z,7.07
2018-12-18T20:56:50.551Z,5.40
2018-12-18T21:01:57.535Z,10.10
2018-12-18T21:07:02.867Z,9.83
2018-12-18T21:12:08.256Z,3.73
2018-12-18T21:17:14.415Z,5.23
2018-12-18T21:22:19.230Z,2.77
2018-12-18T21:27:25.603Z,4.27
2018-12-18T21:32:30.792Z,3.30
2018-12-18T21:37:36.214Z,8.63
2018-12-18T21:48:03.874Z,5.30
2018-12-18T21:53:09.894Z,7.17
2018-12-18T21:58:14.705Z,2.13
2018-12-18T22:03:19.293Z,2.77
2018-12-18T22:08:25.222Z,5.67
2018-12-18T22:13:30.873Z,5.40
2018-12-18T22:18:37.213Z,2.40
2018-12-18T22:23:42.626Z,3.00
2018-12-18T22:28:47.453Z,6.47
2018-12-18T22:33:52.649Z,3.67
2018-12-18T22:38:57.881Z,5.50
2018-12-18T22:44:03.185Z,4.60
2018-12-18T22:54:35.754Z,4.20
2018-12-18T22:59:40.408Z,3.10
2018-12-18T23:04:46.650Z,6.20
2018-12-18T23:09:51.529Z,2.90
2018-12-18T23:14:59.102Z,4.07
2018-12-18T23:20:04.524Z,2.30
2018-12-18T23:25:09.904Z,2.77
2018-12-18T23:30:15.715Z,3.40
2018-12-18T23:35:20.540Z,2.87
2018-12-18T23:40:25.375Z,7.83
2018-12-18T23:45:30.724Z,3.37
2018-12-18T23:50:35.832Z,2.20
